Time;durP1;ratioP1;P1;durP2;ratioP2;P2;SDS_P1;SDS_P2;PMS_P1;PMS_P2;Temp;Humidity;BMP_temperature;BMP_pressure;BME280_temperature;BME280_humidity;BME280_pressure;Samples;Min_cycle;Max_cycle;Signal;HPM_P1;HPM_P2
2021/12/11 00:02:17;;;;;;;5.30;2.28;;;;;;;;;;5112702;27;20476;-42
2021/12/11 00:04:45;;;;;;;12.35;2.83;;;;;;;;;;5117531;27;20613;-46
2021/12/11 00:07:12;;;;;;;7.05;2.45;;;;;;;;;;5115847;27;20448;-42
2021/12/11 00:09:40;;;;;;;9.45;2.28;;;;;;;;;;5114223;27;20064;-42
2021/12/11 00:12:15;;;;;;;12.70;2.25;;;;;;;;;;5113137;27;20114;-43
2021/12/11 00:14:42;;;;;;;8.02;2.28;;;;;;;;;;5114945;27;20795;-46
2021/12/11 00:17:08;;;;;;;5.53;2.45;;;;;;;;;;5113762;27;20027;-45
2021/12/11 00:19:35;;;;;;;5.40;2.05;;;;;;;;;;5109410;27;20043;-41
2021/12/11 00:22:05;;;;;;;1.58;0.88;;;;;;;;;;5114395;27;20079;-43
2021/12/11 00:24:33;;;;;;;2.42;1.58;;;;;;;;;;5113485;27;20091;-47
2021/12/11 00:27:03;;;;;;;6.88;1.67;;;;;;;;;;5114596;27;20145;-43
2021/12/11 00:29:29;;;;;;;20.75;1.55;;;;;;;;;;5115845;27;20020;-44
2021/12/11 00:31:59;;;;;;;4.32;1.00;;;;;;;;;;5114773;27;20488;-42
2021/12/11 00:34:24;;;;;;;7.22;2.10;;;;;;;;;;5113255;27;20087;-47
2021/12/11 00:36:51;;;;;;;6.00;2.70;;;;;;;;;;5115584;27;20484;-42
2021/12/11 00:39:18;;;;;;;4.10;1.00;;;;;;;;;;5115676;27;20025;-42
2021/12/11 00:41:50;;;;;;;2.35;0.80;;;;;;;;;;5110970;27;20019;-44
2021/12/11 00:44:16;;;;;;;4.47;1.95;;;;;;;;;;5112070;27;20072;-45
2021/12/11 00:46:41;;;;;;;3.72;1.70;;;;;;;;;;5113822;27;20015;-44
2021/12/11 00:49:18;;;;;;;6.68;2.42;;;;;;;;;;5110276;27;20487;-45
2021/12/11 00:51:50;;;;;;;7.70;2.17;;;;;;;;;;5113534;27;20247;-42
2021/12/11 00:54:16;;;;;;;6.47;1.92;;;;;;;;;;5110252;27;20037;-43
2021/12/11 00:56:42;;;;;;;7.60;0.82;;;;;;;;;;5111077;27;20019;-42
2021/12/11 00:59:12;;;;;;;5.05;1.98;;;;;;;;;;5112860;27;20443;-43
2021/12/11 01:01:37;;;;;;;8.40;2.67;;;;;;;;;;5100921;28;20027;-41
2021/12/11 01:04:09;;;;;;;4.68;2.00;;;;;;;;;;5116198;28;20778;-44
2021/12/11 01:06:55;;;;;;;7.50;1.48;;;;;;;;;;5111967;28;20063;-41
2021/12/11 01:09:20;;;;;;;8.90;0.88;;;;;;;;;;5114576;28;20028;-43
2021/12/11 01:11:47;;;;;;;4.40;1.27;;;;;;;;;;5108186;28;20084;-43
2021/12/11 01:14:22;;;;;;;6.80;1.35;;;;;;;;;;5109377;28;20028;-42
2021/12/11 01:16:50;;;;;;;5.95;1.05;;;;;;;;;;5114092;28;20395;-41
2021/12/11 01:19:18;;;;;;;3.55;0.88;;;;;;;;;;5115032;28;20074;-43
2021/12/11 01:21:55;;;;;;;4.30;0.93;;;;;;;;;;5112562;28;20054;-41
2021/12/11 01:24:42;;;;;;;1.95;1.10;;;;;;;;;;5113253;28;20030;-45
2021/12/11 01:27:07;;;;;;;10.55;1.77;;;;;;;;;;5114559;28;20039;-41
2021/12/11 01:29:33;;;;;;;3.97;1.48;;;;;;;;;;5113912;28;20035;-43
2021/12/11 01:31:59;;;;;;;2.33;1.05;;;;;;;;;;5110705;28;20145;-43
2021/12/11 01:34:26;;;;;;;2.97;1.30;;;;;;;;;;5112710;28;20015;-44
2021/12/11 01:36:52;;;;;;;5.28;0.88;;;;;;;;;;5112005;28;20017;-45
2021/12/11 01:39:19;;;;;;;4.10;0.77;;;;;;;;;;5115601;28;20008;-43
2021/12/11 01:41:46;;;;;;;4.13;1.02;;;;;;;;;;5112870;28;20728;-47
2021/12/11 01:44:15;;;;;;;6.25;1.05;;;;;;;;;;5112626;28;20312;-44
2021/12/11 01:46:40;;;;;;;8.38;1.40;;;;;;;;;;5118875;28;20026;-44
2021/12/11 01:49:09;;;;;;;8.57;1.00;;;;;;;;;;5113316;28;20114;-43
2021/12/11 01:51:40;;;;;;;4.85;1.27;;;;;;;;;;5115512;28;20026;-43
2021/12/11 01:54:16;;;;;;;9.17;2.07;;;;;;;;;;5113809;28;20016;-43
2021/12/11 01:56:43;;;;;;;3.20;0.73;;;;;;;;;;5118482;28;20334;-46
2021/12/11 01:59:29;;;;;;;1.20;0.50;;;;;;;;;;5118953;28;20104;-43
2021/12/11 02:02:04;;;;;;;16.60;2.75;;;;;;;;;;5117780;28;20042;-43
2021/12/11 02:04:31;;;;;;;0.75;0.38;;;;;;;;;;5114572;28;20431;-44
2021/12/11 02:07:00;;;;;;;5.47;1.50;;;;;;;;;;5113584;28;20563;-43
2021/12/11 02:09:30;;;;;;;5.78;1.38;;;;;;;;;;5116836;27;20019;-46
2021/12/11 02:12:01;;;;;;;3.22;0.85;;;;;;;;;;5118900;27;20026;-46
2021/12/11 02:14:33;;;;;;;3.05;0.52;;;;;;;;;;5115986;27;20064;-43
2021/12/11 02:17:01;;;;;;;6.40;1.27;;;;;;;;;;5121310;27;20089;-43
2021/12/11 02:19:32;;;;;;;4.38;2.08;;;;;;;;;;5117210;27;20089;-43
2021/12/11 02:22:00;;;;;;;1.45;0.80;;;;;;;;;;5120537;27;20019;-43
2021/12/11 02:24:31;;;;;;;2.33;1.02;;;;;;;;;;5116736;27;20021;-45
2021/12/11 02:26:56;;;;;;;2.63;1.40;;;;;;;;;;5119303;27;20050;-43
2021/12/11 02:29:28;;;;;;;9.82;1.13;;;;;;;;;;5117130;27;20054;-43
2021/12/11 02:32:04;;;;;;;1.33;0.98;;;;;;;;;;5119623;27;20015;-45
2021/12/11 02:34:33;;;;;;;5.15;0.63;;;;;;;;;;5119150;27;20090;-45
2021/12/11 02:37:05;;;;;;;4.55;1.83;;;;;;;;;;5117836;27;20012;-45
2021/12/11 02:39:30;;;;;;;3.78;1.38;;;;;;;;;;5116592;27;20018;-45
2021/12/11 02:42:03;;;;;;;8.23;1.10;;;;;;;;;;5120970;27;20019;-44
2021/12/11 02:44:31;;;;;;;6.70;0.75;;;;;;;;;;5118058;27;20023;-44
2021/12/11 02:47:05;;;;;;;6.28;1.33;;;;;;;;;;5119535;27;20026;-45
2021/12/11 02:49:43;;;;;;;1.40;0.98;;;;;;;;;;5116768;27;20133;-42
2021/12/11 02:52:13;;;;;;;4.57;0.47;;;;;;;;;;5118210;27;20027;-43
2021/12/11 02:54:41;;;;;;;4.00;1.77;;;;;;;;;;5116542;27;20026;-45
2021/12/11 02:57:10;;;;;;;5.97;1.63;;;;;;;;;;5115251;27;20019;-42
2021/12/11 02:59:41;;;;;;;6.13;1.25;;;;;;;;;;5118761;27;20026;-43
2021/12/11 03:02:09;;;;;;;;;;;;;;;;;;5116619;27;20027;-44
2021/12/11 03:04:38;;;;;;;3.25;1.52;;;;;;;;;;5122110;27;19964;-44
2021/12/11 03:07:07;;;;;;;10.25;1.73;;;;;;;;;;5116807;27;20031;-44
2021/12/11 03:09:34;;;;;;;3.83;1.02;;;;;;;;;;5116282;27;20071;-44
2021/12/11 03:12:00;;;;;;;2.45;0.95;;;;;;;;;;5114044;27;20072;-49
2021/12/11 03:14:27;;;;;;;4.28;1.95;;;;;;;;;;5116205;27;20027;-40
2021/12/11 03:16:53;;;;;;;3.40;1.30;;;;;;;;;;5115744;27;20545;-41
2021/12/11 03:19:23;;;;;;;7.15;1.42;;;;;;;;;;5116722;27;20047;-41
2021/12/11 03:21:49;;;;;;;10.02;1.27;;;;;;;;;;5116156;27;20020;-41
2021/12/11 03:24:15;;;;;;;5.47;1.15;;;;;;;;;;5101768;27;20024;-42
2021/12/11 03:26:41;;;;;;;5.00;1.48;;;;;;;;;;5118559;27;20020;-44
2021/12/11 03:29:10;;;;;;;11.00;1.13;;;;;;;;;;5116042;27;20048;-46
2021/12/11 03:31:37;;;;;;;7.88;1.00;;;;;;;;;;5116253;27;20022;-45
2021/12/11 03:34:03;;;;;;;5.82;0.80;;;;;;;;;;5114169;27;20029;-44
2021/12/11 03:36:32;;;;;;;12.48;1.52;;;;;;;;;;5114153;27;20034;-44
2021/12/11 03:39:00;;;;;;;6.22;1.40;;;;;;;;;;5119193;27;20636;-42
2021/12/11 03:41:26;;;;;;;3.75;1.38;;;;;;;;;;5116299;27;20043;-41
2021/12/11 03:43:51;;;;;;;2.03;0.70;;;;;;;;;;5119965;27;20509;-43
2021/12/11 03:46:17;;;;;;;10.85;1.75;;;;;;;;;;5117945;27;20043;-41
2021/12/11 03:48:50;;;;;;;5.15;1.23;;;;;;;;;;5118226;27;20079;-46
2021/12/11 03:51:17;;;;;;;6.22;1.48;;;;;;;;;;5114599;27;20019;-45
2021/12/11 03:53:43;;;;;;;4.80;1.33;;;;;;;;;;5117564;27;20018;-43
2021/12/11 03:56:12;;;;;;;2.42;1.10;;;;;;;;;;5116273;27;20019;-43
2021/12/11 03:58:38;;;;;;;2.97;1.38;;;;;;;;;;5115460;27;20035;-43
2021/12/11 04:01:13;;;;;;;3.72;1.70;;;;;;;;;;5115563;27;20019;-43
2021/12/11 04:03:40;;;;;;;6.72;2.67;;;;;;;;;;5120406;27;20015;-48
2021/12/11 04:06:07;;;;;;;6.57;1.98;;;;;;;;;;5115437;27;20081;-42
2021/12/11 04:08:40;;;;;;;4.18;1.55;;;;;;;;;;5117267;27;20024;-44
2021/12/11 04:11:08;;;;;;;3.28;1.25;;;;;;;;;;5117550;27;20162;-43
2021/12/11 04:13:33;;;;;;;7.53;1.50;;;;;;;;;;5115763;27;20019;-42
2021/12/11 04:15:59;;;;;;;2.95;0.98;;;;;;;;;;5117712;27;20023;-42
2021/12/11 04:18:24;;;;;;;6.18;1.35;;;;;;;;;;5116618;27;20641;-43
2021/12/11 04:20:50;;;;;;;6.32;1.92;;;;;;;;;;5115869;27;20091;-45
2021/12/11 04:23:16;;;;;;;6.47;1.38;;;;;;;;;;5116365;27;20047;-42
2021/12/11 04:25:43;;;;;;;5.63;1.55;;;;;;;;;;5117430;27;20110;-46
2021/12/11 04:28:09;;;;;;;4.00;0.95;;;;;;;;;;5114941;27;20020;-48
2021/12/11 04:30:35;;;;;;;3.20;0.95;;;;;;;;;;5116924;27;20027;-42
2021/12/11 04:33:00;;;;;;;4.07;1.73;;;;;;;;;;5116317;27;20023;-42
2021/12/11 04:35:28;;;;;;;3.67;0.85;;;;;;;;;;5117320;27;20081;-47
2021/12/11 04:37:54;;;;;;;10.00;1.90;;;;;;;;;;5119541;27;20019;-42
2021/12/11 04:40:22;;;;;;;2.65;1.05;;;;;;;;;;5116628;27;20365;-44
2021/12/11 04:45:19;;;;;;;2.00;1.33;;;;;;;;;;5116654;27;20053;-42
2021/12/11 04:47:55;;;;;;;1.55;0.77;;;;;;;;;;5118664;27;20035;-42
2021/12/11 04:50:33;;;;;;;3.78;1.50;;;;;;;;;;5118911;27;20023;-41
2021/12/11 04:52:59;;;;;;;9.82;1.77;;;;;;;;;;5115303;27;20027;-44
2021/12/11 04:58:07;;;;;;;5.13;1.75;;;;;;;;;;5114181;27;20059;-45
2021/12/11 05:13:14;;;;;;;6.28;0.68;;;;;;;;;;5116552;28;20118;-42
2021/12/11 05:15:41;;;;;;;1.70;0.77;;;;;;;;;;5118385;28;20103;-43
2021/12/11 05:18:09;;;;;;;5.47;2.22;;;;;;;;;;5117438;27;20080;-42
2021/12/11 05:20:35;;;;;;;4.03;1.00;;;;;;;;;;5118846;28;20094;-45
2021/12/11 05:23:01;;;;;;;3.75;1.25;;;;;;;;;;5112099;28;20117;-44
2021/12/11 05:25:26;;;;;;;4.65;2.40;;;;;;;;;;5116161;28;20035;-47
2021/12/11 05:27:52;;;;;;;3.97;1.05;;;;;;;;;;5114045;27;20031;-44
2021/12/11 05:30:20;;;;;;;2.60;1.60;;;;;;;;;;5114314;28;20026;-44
2021/12/11 05:32:47;;;;;;;6.88;2.88;;;;;;;;;;5101253;28;20502;-46
2021/12/11 05:35:14;;;;;;;1.90;1.25;;;;;;;;;;5117361;28;20046;-42
2021/12/11 05:37:40;;;;;;;7.20;0.98;;;;;;;;;;5114733;28;20468;-44
2021/12/11 05:40:14;;;;;;;4.25;2.63;;;;;;;;;;5116696;28;20007;-43
2021/12/11 05:42:39;;;;;;;4.25;1.60;;;;;;;;;;5117303;28;20032;-44
2021/12/11 05:45:05;;;;;;;2.58;1.42;;;;;;;;;;5114738;27;20480;-45
2021/12/11 05:47:30;;;;;;;8.73;2.13;;;;;;;;;;5121131;27;20030;-42
2021/12/11 05:49:57;;;;;;;3.47;1.48;;;;;;;;;;5122732;27;20019;-43
2021/12/11 05:52:23;;;;;;;8.90;2.50;;;;;;;;;;5122180;27;20023;-44
2021/12/11 05:54:49;;;;;;;12.13;1.90;;;;;;;;;;5124400;27;20050;-44
2021/12/11 05:57:17;;;;;;;4.55;1.92;;;;;;;;;;5122552;27;20020;-42
2021/12/11 05:59:43;;;;;;;6.93;2.13;;;;;;;;;;5119465;27;20030;-46
2021/12/11 06:02:17;;;;;;;2.90;1.30;;;;;;;;;;5119539;27;20669;-47
2021/12/11 06:04:44;;;;;;;8.23;2.75;;;;;;;;;;5116270;27;20107;-41
2021/12/11 06:07:10;;;;;;;22.23;16.63;;;;;;;;;;5117410;27;20168;-42
2021/12/11 06:09:37;;;;;;;32.13;24.13;;;;;;;;;;5119656;27;20020;-45
2021/12/11 06:12:05;;;;;;;12.88;7.63;;;;;;;;;;5121040;27;20098;-43
2021/12/11 06:14:30;;;;;;;2.40;1.42;;;;;;;;;;5117189;27;20030;-42
2021/12/11 06:16:56;;;;;;;5.05;2.15;;;;;;;;;;5119026;27;20012;-43
2021/12/11 06:19:22;;;;;;;5.95;1.65;;;;;;;;;;5116759;27;20131;-42
2021/12/11 06:21:49;;;;;;;6.20;1.98;;;;;;;;;;5119805;27;20650;-43
2021/12/11 06:24:17;;;;;;;2.25;0.80;;;;;;;;;;5116797;27;20555;-42
2021/12/11 06:26:42;;;;;;;6.53;2.05;;;;;;;;;;5119759;27;20020;-46
2021/12/11 06:29:08;;;;;;;8.45;2.75;;;;;;;;;;5119114;27;20022;-42
2021/12/11 06:31:34;;;;;;;7.88;2.10;;;;;;;;;;5117717;27;20089;-41
2021/12/11 06:34:00;;;;;;;4.13;2.10;;;;;;;;;;5117109;27;20023;-44
2021/12/11 06:36:26;;;;;;;4.97;2.10;;;;;;;;;;5101734;27;20023;-43
2021/12/11 06:38:54;;;;;;;9.25;2.33;;;;;;;;;;5119130;27;20031;-43
2021/12/11 06:41:22;;;;;;;17.48;3.97;;;;;;;;;;5117153;27;20095;-42
2021/12/11 06:43:49;;;;;;;8.60;3.60;;;;;;;;;;5119701;27;20485;-41
2021/12/11 06:46:15;;;;;;;5.90;2.53;;;;;;;;;;5115191;27;20104;-41
2021/12/11 06:48:41;;;;;;;9.40;2.97;;;;;;;;;;5118439;27;20546;-41
2021/12/11 06:51:06;;;;;;;21.00;18.52;;;;;;;;;;5116604;27;20023;-42
2021/12/11 06:53:32;;;;;;;35.53;29.73;;;;;;;;;;5118387;27;20008;-45
2021/12/11 06:55:57;;;;;;;15.90;12.65;;;;;;;;;;5116570;27;20038;-43
2021/12/11 06:58:22;;;;;;;10.00;4.75;;;;;;;;;;5118790;27;20038;-43
2021/12/11 07:00:48;;;;;;;10.07;6.00;;;;;;;;;;5119057;27;20023;-42
2021/12/11 07:03:13;;;;;;;4.43;2.95;;;;;;;;;;5117421;27;20019;-42
2021/12/11 07:05:39;;;;;;;8.25;3.30;;;;;;;;;;5118899;27;20118;-44
2021/12/11 07:08:08;;;;;;;19.17;11.48;;;;;;;;;;5118180;27;20019;-43
2021/12/11 07:10:33;;;;;;;17.27;12.93;;;;;;;;;;5117415;27;20480;-43
2021/12/11 07:12:59;;;;;;;12.82;6.30;;;;;;;;;;5116827;27;20015;-42
2021/12/11 07:15:25;;;;;;;5.45;4.13;;;;;;;;;;5114728;27;20015;-43
2021/12/11 07:17:50;;;;;;;5.18;3.35;;;;;;;;;;5117112;27;20018;-43
2021/12/11 07:20:16;;;;;;;11.02;3.88;;;;;;;;;;5115137;27;20051;-43
2021/12/11 07:22:42;;;;;;;20.52;17.27;;;;;;;;;;5117739;27;20031;-47
2021/12/11 07:25:27;;;;;;;18.50;9.98;;;;;;;;;;5116742;27;20500;-46
2021/12/11 07:27:54;;;;;;;9.38;5.03;;;;;;;;;;5115733;27;20187;-43
2021/12/11 07:30:20;;;;;;;12.60;7.97;;;;;;;;;;5116091;27;20024;-43
2021/12/11 07:32:45;;;;;;;15.27;8.35;;;;;;;;;;5115981;27;20034;-45
2021/12/11 07:35:11;;;;;;;26.65;15.30;;;;;;;;;;5116230;27;20102;-45
2021/12/11 07:37:37;;;;;;;31.38;24.85;;;;;;;;;;5114174;27;20015;-46
2021/12/11 07:40:07;;;;;;;16.63;12.00;;;;;;;;;;5116069;27;20137;-43
2021/12/11 07:42:32;;;;;;;22.50;9.77;;;;;;;;;;5115551;27;20434;-43
2021/12/11 07:44:58;;;;;;;11.77;7.47;;;;;;;;;;5117150;27;20525;-43
2021/12/11 07:47:25;;;;;;;24.40;16.20;;;;;;;;;;5116003;27;20022;-42
2021/12/11 07:49:51;;;;;;;16.27;10.68;;;;;;;;;;5119461;27;20030;-47
2021/12/11 07:52:16;;;;;;;29.27;6.38;;;;;;;;;;5118782;27;20019;-45
2021/12/11 07:54:41;;;;;;;9.93;2.45;;;;;;;;;;5117702;27;20027;-43
2021/12/11 07:57:07;;;;;;;5.13;3.22;;;;;;;;;;5116029;27;20020;-43
2021/12/11 07:59:32;;;;;;;7.22;2.75;;;;;;;;;;5113700;27;20020;-46
2021/12/11 08:01:57;;;;;;;4.97;3.10;;;;;;;;;;5113353;27;20069;-43
2021/12/11 08:04:23;;;;;;;19.20;3.50;;;;;;;;;;5115233;27;20055;-44
2021/12/11 08:06:49;;;;;;;16.58;4.72;;;;;;;;;;5114988;27;20023;-42
2021/12/11 08:09:17;;;;;;;5.32;2.15;;;;;;;;;;5111998;27;20051;-49
2021/12/11 08:11:44;;;;;;;3.67;1.60;;;;;;;;;;5117840;27;20023;-42
2021/12/11 08:14:09;;;;;;;8.45;2.60;;;;;;;;;;5112869;27;20063;-47
2021/12/11 08:16:44;;;;;;;12.93;2.70;;;;;;;;;;5114809;27;20050;-44
2021/12/11 08:19:10;;;;;;;10.90;5.45;;;;;;;;;;5116126;27;20277;-50
2021/12/11 08:21:35;;;;;;;23.98;10.93;;;;;;;;;;5113993;27;20544;-45
2021/12/11 08:24:05;;;;;;;21.50;14.55;;;;;;;;;;5117115;27;20026;-45
2021/12/11 08:26:30;;;;;;;42.75;28.50;;;;;;;;;;5117922;27;20041;-45
2021/12/11 08:28:56;;;;;;;34.72;27.38;;;;;;;;;;5115687;27;20121;-44
2021/12/11 08:31:21;;;;;;;37.08;26.83;;;;;;;;;;5115420;27;20019;-43
2021/12/11 08:33:47;;;;;;;50.20;35.40;;;;;;;;;;5117198;27;20418;-40
2021/12/11 08:36:12;;;;;;;40.92;32.17;;;;;;;;;;5121850;27;20889;-43
2021/12/11 08:38:38;;;;;;;55.45;20.15;;;;;;;;;;5124490;27;20092;-61
2021/12/11 08:41:05;;;;;;;35.75;23.35;;;;;;;;;;5123069;27;20019;-63
2021/12/11 08:43:31;;;;;;;31.92;17.08;;;;;;;;;;5116497;27;20569;-63
2021/12/11 08:46:10;;;;;;;31.77;21.40;;;;;;;;;;5116740;27;20038;-63
2021/12/11 08:48:37;;;;;;;29.48;16.60;;;;;;;;;;5117059;27;20485;-63
2021/12/11 08:51:07;;;;;;;23.88;15.25;;;;;;;;;;5099332;28;20039;-62
2021/12/11 08:53:33;;;;;;;28.70;13.35;;;;;;;;;;5112835;27;20098;-62
2021/12/11 08:55:58;;;;;;;11.95;6.20;;;;;;;;;;5097410;27;20135;-63
2021/12/11 08:58:25;;;;;;;25.35;11.70;;;;;;;;;;5114628;27;20016;-63
2021/12/11 09:00:57;;;;;;;7.55;3.10;;;;;;;;;;5114138;27;20059;-64
2021/12/11 09:03:35;;;;;;;9.13;5.18;;;;;;;;;;5117546;28;20076;-63
2021/12/11 09:06:03;;;;;;;5.53;3.03;;;;;;;;;;5113670;28;20019;-69
2021/12/11 09:08:37;;;;;;;19.85;3.53;;;;;;;;;;5117984;28;20023;-69
2021/12/11 09:11:08;;;;;;;10.02;4.70;;;;;;;;;;5116740;28;20119;-68
2021/12/11 09:13:40;;;;;;;9.38;3.85;;;;;;;;;;5112079;28;20030;-66
2021/12/11 09:16:06;;;;;;;17.02;3.38;;;;;;;;;;5115351;28;20020;-67
2021/12/11 09:18:43;;;;;;;11.60;4.43;;;;;;;;;;5113101;28;20088;-71
2021/12/11 09:21:11;;;;;;;7.75;5.30;;;;;;;;;;5121600;27;20088;-69
2021/12/11 09:23:38;;;;;;;10.48;4.22;;;;;;;;;;5122734;27;20033;-68
2021/12/11 09:26:13;;;;;;;6.43;3.70;;;;;;;;;;5121892;27;20039;-67
2021/12/11 09:28:48;;;;;;;12.15;3.38;;;;;;;;;;5121132;27;20030;-68
2021/12/11 09:31:19;;;;;;;9.80;4.35;;;;;;;;;;5123394;27;20007;-65
2021/12/11 09:33:48;;;;;;;8.52;5.00;;;;;;;;;;5122768;27;20038;-63
2021/12/11 09:36:33;;;;;;;6.10;3.20;;;;;;;;;;5119864;27;20016;-63
2021/12/11 09:39:07;;;;;;;6.45;5.05;;;;;;;;;;5121624;27;20019;-64
2021/12/11 09:41:33;;;;;;;15.70;5.50;;;;;;;;;;5122850;27;20056;-64
2021/12/11 09:44:04;;;;;;;9.85;3.72;;;;;;;;;;5120147;27;20026;-64
2021/12/11 09:46:32;;;;;;;10.80;5.57;;;;;;;;;;5119805;27;20571;-65
2021/12/11 09:48:58;;;;;;;12.02;7.20;;;;;;;;;;5119961;27;20525;-62
2021/12/11 09:51:30;;;;;;;8.63;6.28;;;;;;;;;;5116628;27;20034;-61
2021/12/11 09:54:02;;;;;;;7.00;3.25;;;;;;;;;;5112792;27;20675;-63
2021/12/11 09:56:30;;;;;;;13.27;5.60;;;;;;;;;;5117261;27;20018;-64
2021/12/11 09:58:56;;;;;;;9.95;6.20;;;;;;;;;;5120602;27;20096;-65
2021/12/11 10:01:30;;;;;;;13.60;9.73;;;;;;;;;;5122061;27;20053;-66
2021/12/11 10:04:00;;;;;;;20.67;8.02;;;;;;;;;;5120751;27;20023;-65
2021/12/11 10:07:37;;;;;;;18.08;8.55;;;;;;;;;;5119631;27;20068;-67
2021/12/11 10:09:32;;;;;;;24.92;8.68;;;;;;;;;;5101522;27;20055;-68
2021/12/11 10:12:05;;;;;;;17.50;8.73;;;;;;;;;;5111834;27;20077;-65
2021/12/11 10:14:33;;;;;;;18.67;8.63;;;;;;;;;;5122149;27;20553;-62
2021/12/11 10:17:01;;;;;;;22.08;6.90;;;;;;;;;;5118448;27;20111;-62
2021/12/11 10:19:29;;;;;;;17.77;7.03;;;;;;;;;;5114334;27;20134;-64
2021/12/11 10:21:58;;;;;;;11.55;4.93;;;;;;;;;;5117290;27;20031;-64
2021/12/11 10:24:24;;;;;;;23.17;4.05;;;;;;;;;;5115255;27;20076;-64
2021/12/11 10:26:52;;;;;;;18.80;6.82;;;;;;;;;;5119124;27;20023;-64
2021/12/11 10:29:22;;;;;;;16.02;5.68;;;;;;;;;;5118126;27;20303;-64
2021/12/11 10:31:49;;;;;;;12.77;4.70;;;;;;;;;;5117660;27;20031;-64
2021/12/11 10:34:17;;;;;;;15.82;7.55;;;;;;;;;;5117430;27;20011;-64
2021/12/11 10:36:49;;;;;;;14.40;5.20;;;;;;;;;;5116930;27;20003;-64
2021/12/11 10:39:15;;;;;;;21.13;7.28;;;;;;;;;;5118491;27;20041;-63
2021/12/11 10:41:41;;;;;;;17.45;8.88;;;;;;;;;;5118816;27;20027;-64
2021/12/11 10:44:08;;;;;;;9.88;7.53;;;;;;;;;;5114786;27;20030;-64
2021/12/11 10:46:45;;;;;;;15.15;5.97;;;;;;;;;;5120543;27;20099;-64
2021/12/11 10:49:12;;;;;;;19.05;9.35;;;;;;;;;;5120228;27;20028;-64
2021/12/11 10:51:41;;;;;;;20.88;9.82;;;;;;;;;;5121143;27;20531;-63
2021/12/11 10:54:08;;;;;;;21.42;8.65;;;;;;;;;;5118098;27;20692;-64
2021/12/11 10:56:33;;;;;;;11.57;4.88;;;;;;;;;;5112551;27;20495;-63
2021/12/11 10:59:04;;;;;;;11.95;4.53;;;;;;;;;;5116658;27;20047;-63
2021/12/11 11:01:30;;;;;;;16.20;6.50;;;;;;;;;;5115933;27;20023;-63
2021/12/11 11:04:00;;;;;;;20.63;8.35;;;;;;;;;;5115082;27;20578;-64
2021/12/11 11:06:27;;;;;;;19.88;8.73;;;;;;;;;;5113506;27;20489;-63
2021/12/11 11:08:52;;;;;;;15.52;6.28;;;;;;;;;;5109737;27;20531;-64
2021/12/11 11:11:19;;;;;;;11.27;6.03;;;;;;;;;;5117137;27;20035;-63
2021/12/11 11:13:45;;;;;;;22.38;7.20;;;;;;;;;;5112789;27;20027;-63
2021/12/11 11:16:11;;;;;;;18.20;5.45;;;;;;;;;;5113893;27;20046;-64
2021/12/11 11:18:37;;;;;;;12.05;3.95;;;;;;;;;;5110340;27;20035;-64
2021/12/11 11:21:10;;;;;;;10.02;3.33;;;;;;;;;;5116171;27;20368;-64
2021/12/11 11:23:37;;;;;;;19.48;12.20;;;;;;;;;;5114212;27;20024;-64
2021/12/11 11:26:04;;;;;;;15.30;9.73;;;;;;;;;;5115276;27;20031;-62
2021/12/11 11:28:33;;;;;;;26.42;15.10;;;;;;;;;;5113611;27;20027;-64
2021/12/11 11:30:59;;;;;;;18.05;6.95;;;;;;;;;;5113035;27;20072;-64
2021/12/11 11:33:26;;;;;;;16.70;10.93;;;;;;;;;;5111110;27;20130;-64
2021/12/11 11:35:52;;;;;;;24.92;16.98;;;;;;;;;;5112478;27;20030;-64
2021/12/11 11:38:21;;;;;;;11.57;7.57;;;;;;;;;;5110660;27;20015;-64
2021/12/11 11:40:47;;;;;;;17.27;7.82;;;;;;;;;;5115707;27;20087;-64
2021/12/11 11:43:13;;;;;;;21.92;11.27;;;;;;;;;;5110675;27;20026;-66
2021/12/11 11:45:39;;;;;;;15.35;12.32;;;;;;;;;;5114985;27;20016;-63
2021/12/11 11:48:06;;;;;;;12.18;6.65;;;;;;;;;;5115513;27;20022;-65
2021/12/11 11:50:33;;;;;;;10.52;8.68;;;;;;;;;;5111643;27;20019;-63
2021/12/11 11:52:59;;;;;;;14.48;10.07;;;;;;;;;;5113814;27;20096;-64
2021/12/11 11:55:27;;;;;;;18.50;12.15;;;;;;;;;;5114730;27;20470;-64
2021/12/11 11:57:54;;;;;;;13.40;10.90;;;;;;;;;;5117146;27;20031;-64
2021/12/11 12:00:19;;;;;;;12.38;8.88;;;;;;;;;;5113743;27;20019;-64
2021/12/11 12:02:45;;;;;;;39.80;35.97;;;;;;;;;;5115004;27;20073;-65
2021/12/11 12:05:10;;;;;;;17.73;15.63;;;;;;;;;;5097915;27;20053;-66
2021/12/11 12:07:36;;;;;;;13.95;5.63;;;;;;;;;;5113814;27;20216;-65
2021/12/11 12:10:05;;;;;;;22.63;7.68;;;;;;;;;;5111000;27;20035;-62
2021/12/11 12:12:31;;;;;;;18.00;5.80;;;;;;;;;;5110701;27;20031;-63
2021/12/11 12:14:57;;;;;;;8.82;4.63;;;;;;;;;;5113368;27;20026;-63
2021/12/11 12:17:23;;;;;;;7.05;6.05;;;;;;;;;;5113659;27;20019;-63
2021/12/11 12:19:50;;;;;;;22.77;9.85;;;;;;;;;;5110362;27;20054;-62
2021/12/11 12:22:16;;;;;;;17.05;11.57;;;;;;;;;;5112914;27;20026;-64
2021/12/11 12:24:42;;;;;;;45.78;28.90;;;;;;;;;;5112039;27;20015;-64
2021/12/11 12:27:11;;;;;;;13.57;10.73;;;;;;;;;;5116117;27;20059;-64
2021/12/11 12:29:37;;;;;;;25.75;10.48;;;;;;;;;;5113669;27;20293;-64
2021/12/11 12:32:08;;;;;;;41.47;30.58;;;;;;;;;;5113930;27;20843;-63
2021/12/11 12:34:34;;;;;;;52.00;31.55;;;;;;;;;;5109251;27;20031;-64
2021/12/11 12:37:00;;;;;;;18.73;11.52;;;;;;;;;;5110639;27;20015;-62
2021/12/11 12:39:33;;;;;;;15.80;11.40;;;;;;;;;;5111667;27;20020;-65
2021/12/11 12:42:15;;;;;;;18.00;8.02;;;;;;;;;;5108492;27;20047;-64
2021/12/11 12:44:46;;;;;;;51.55;37.53;;;;;;;;;;5107463;27;20015;-64
2021/12/11 12:47:11;;;;;;;;;;;;;;;;;;5112780;27;20027;-65
2021/12/11 12:49:40;;;;;;;56.67;40.15;;;;;;;;;;5114614;27;19908;-65
2021/12/11 12:52:08;;;;;;;70.43;58.30;;;;;;;;;;5115500;27;20027;-64
2021/12/11 12:54:34;;;;;;;39.42;27.98;;;;;;;;;;5112467;27;20067;-65
2021/12/11 12:57:08;;;;;;;19.50;17.60;;;;;;;;;;5116469;27;20507;-64
2021/12/11 12:59:35;;;;;;;11.90;10.02;;;;;;;;;;5117695;27;20082;-66
2021/12/11 13:02:06;;;;;;;43.13;38.80;;;;;;;;;;5114543;27;20164;-63
2021/12/11 13:04:34;;;;;;;30.73;21.75;;;;;;;;;;5110177;27;20027;-64
2021/12/11 13:07:01;;;;;;;15.55;10.85;;;;;;;;;;5108170;27;20115;-64
2021/12/11 13:09:30;;;;;;;24.67;14.80;;;;;;;;;;5115407;28;20555;-64
2021/12/11 13:11:56;;;;;;;5.93;5.18;;;;;;;;;;5112620;28;20028;-64
2021/12/11 13:14:21;;;;;;;17.00;9.88;;;;;;;;;;5114692;28;20081;-66
2021/12/11 13:16:50;;;;;;;10.40;5.38;;;;;;;;;;5114916;28;20023;-68
2021/12/11 13:19:18;;;;;;;14.82;7.35;;;;;;;;;;5113436;28;20058;-68
2021/12/11 13:21:57;;;;;;;17.80;7.03;;;;;;;;;;5111658;28;20012;-68
2021/12/11 13:24:22;;;;;;;5.70;3.42;;;;;;;;;;5113707;28;20055;-68
2021/12/11 13:26:50;;;;;;;10.85;4.18;;;;;;;;;;5113653;28;20057;-68
2021/12/11 13:29:17;;;;;;;16.30;8.68;;;;;;;;;;5111083;28;20027;-67
2021/12/11 13:31:46;;;;;;;16.67;9.00;;;;;;;;;;5116373;28;20019;-67
2021/12/11 13:34:12;;;;;;;11.95;9.82;;;;;;;;;;5096475;28;20027;-67
2021/12/11 13:36:38;;;;;;;25.33;18.63;;;;;;;;;;5120004;28;20019;-66
2021/12/11 13:39:05;;;;;;;26.77;24.02;;;;;;;;;;5115943;28;20020;-65
2021/12/11 13:41:32;;;;;;;25.73;15.48;;;;;;;;;;5100200;28;20110;-65
2021/12/11 13:43:58;;;;;;;26.98;12.65;;;;;;;;;;5114045;28;20548;-65
2021/12/11 13:46:23;;;;;;;9.77;6.53;;;;;;;;;;5116524;28;20012;-66
2021/12/11 13:48:49;;;;;;;29.00;19.10;;;;;;;;;;5116726;28;20396;-65
2021/12/11 13:51:17;;;;;;;15.93;12.40;;;;;;;;;;5114275;28;20527;-67
2021/12/11 13:53:43;;;;;;;14.63;12.07;;;;;;;;;;5098799;28;20019;-66
2021/12/11 13:56:11;;;;;;;20.77;10.93;;;;;;;;;;5117038;28;20068;-65
2021/12/11 13:58:37;;;;;;;20.25;7.43;;;;;;;;;;5114059;28;20038;-66
2021/12/11 14:01:05;;;;;;;26.13;10.00;;;;;;;;;;5116949;27;20047;-65
2021/12/11 14:03:31;;;;;;;19.40;12.65;;;;;;;;;;5112210;28;20063;-66
2021/12/11 14:05:58;;;;;;;10.00;8.38;;;;;;;;;;5111516;27;20026;-66
2021/12/11 14:08:24;;;;;;;12.80;7.00;;;;;;;;;;5113251;27;20080;-65
2021/12/11 14:10:50;;;;;;;14.48;7.65;;;;;;;;;;5114662;27;20125;-65
2021/12/11 14:13:17;;;;;;;11.60;6.40;;;;;;;;;;5120549;27;20040;-64
2021/12/11 14:15:43;;;;;;;18.80;10.15;;;;;;;;;;5116416;27;20015;-63
2021/12/11 14:18:10;;;;;;;20.45;12.13;;;;;;;;;;5112361;27;20024;-61
2021/12/11 14:20:35;;;;;;;10.48;6.38;;;;;;;;;;5118334;27;20026;-65
2021/12/11 14:23:02;;;;;;;9.48;8.50;;;;;;;;;;5117813;27;20023;-66
2021/12/11 14:25:32;;;;;;;5.78;3.17;;;;;;;;;;5113933;27;20031;-68
2021/12/11 14:27:57;;;;;;;14.30;4.10;;;;;;;;;;5117247;27;20016;-66
2021/12/11 14:30:23;;;;;;;6.22;2.97;;;;;;;;;;5115654;27;20100;-65
2021/12/11 14:32:53;;;;;;;10.02;8.52;;;;;;;;;;5115417;27;20430;-64
2021/12/11 14:35:20;;;;;;;10.10;6.18;;;;;;;;;;5116761;27;20043;-65
2021/12/11 14:37:46;;;;;;;13.15;9.30;;;;;;;;;;5112283;27;20132;-65
2021/12/11 14:40:13;;;;;;;27.67;13.32;;;;;;;;;;5110525;27;20269;-65
2021/12/11 14:42:38;;;;;;;30.50;23.17;;;;;;;;;;5115210;27;20022;-65
2021/12/11 14:45:06;;;;;;;22.50;17.40;;;;;;;;;;5114719;27;20019;-65
2021/12/11 14:47:32;;;;;;;11.95;5.38;;;;;;;;;;5115601;27;20020;-66
2021/12/11 14:49:57;;;;;;;10.52;6.97;;;;;;;;;;5119652;27;20027;-66
2021/12/11 14:52:24;;;;;;;16.35;8.07;;;;;;;;;;5114143;27;20012;-62
2021/12/11 14:54:51;;;;;;;13.23;4.55;;;;;;;;;;5111082;27;20023;-62
2021/12/11 14:57:19;;;;;;;18.33;8.07;;;;;;;;;;5113924;27;20489;-62